Time;durP1;ratioP1;P1;durP2;ratioP2;P2;SDS_P1;SDS_P2;PMS_P1;PMS_P2;Temp;Humidity;BMP_temperature;BMP_pressure;BME280_temperature;BME280_humidity;BME280_pressure;Samples;Min_cycle;Max_cycle;Signal;HPM_P1;HPM_P2
2022/05/01 00:02:13;;;;;;;25.90;23.50;;;8.40;99.90;;;;;;5055656;28;20044;-82
2022/05/01 00:04:40;;;;;;;25.20;22.83;;;8.40;99.90;;;;;;5036937;28;20037;-82
2022/05/01 00:07:07;;;;;;;26.25;23.65;;;8.40;99.90;;;;;;5055594;28;20036;-83
2022/05/01 00:09:33;;;;;;;24.75;22.42;;;8.40;99.90;;;;;;5040724;28;20220;-84
2022/05/01 00:11:59;;;;;;;25.63;23.42;;;8.40;99.90;;;;;;5063335;28;20052;-83
2022/05/01 00:14:28;;;;;;;25.88;23.58;;;8.40;99.90;;;;;;5062842;28;20044;-81
2022/05/01 00:16:55;;;;;;;25.50;23.00;;;8.40;99.90;;;;;;5039512;28;20041;-81
2022/05/01 00:19:21;;;;;;;23.42;21.10;;;8.40;99.90;;;;;;5053890;28;20056;-81
2022/05/01 00:21:48;;;;;;;25.88;21.83;;;8.40;99.90;;;;;;5052014;28;20162;-81
2022/05/01 00:24:14;;;;;;;21.55;19.85;;;8.40;99.90;;;;;;5052965;28;20517;-81
2022/05/01 00:26:41;;;;;;;24.67;21.75;;;8.40;99.90;;;;;;5054842;28;20044;-81
2022/05/01 00:29:07;;;;;;;24.65;22.35;;;8.50;99.90;;;;;;5054169;28;20470;-81
2022/05/01 00:31:33;;;;;;;23.55;21.45;;;8.50;99.90;;;;;;5047649;28;20570;-82
2022/05/01 00:36:44;;;;;;;22.42;20.33;;;8.60;99.90;;;;;;5053632;28;20029;-81
2022/05/01 00:39:10;;;;;;;23.15;20.80;;;8.60;99.90;;;;;;5054082;28;20029;-82
2022/05/01 00:41:43;;;;;;;22.40;20.35;;;8.60;99.90;;;;;;5045866;28;20044;-81
2022/05/01 00:44:17;;;;;;;21.85;19.95;;;8.60;99.90;;;;;;5054930;28;20143;-82
2022/05/01 00:46:49;;;;;;;21.27;18.55;;;8.60;99.90;;;;;;5037198;28;20457;-82
2022/05/01 00:49:24;;;;;;;25.13;17.83;;;8.60;99.90;;;;;;5050996;28;20056;-81
2022/05/01 00:52:00;;;;;;;21.08;19.02;;;8.50;99.90;;;;;;5018693;28;20041;-82
2022/05/01 00:54:28;;;;;;;20.58;18.58;;;8.50;99.90;;;;;;5032379;28;20041;-81
2022/05/01 00:56:59;;;;;;;19.90;18.27;;;8.50;99.90;;;;;;5053423;28;20040;-82
2022/05/01 00:59:26;;;;;;;20.75;18.85;;;8.50;99.90;;;;;;5032550;28;20398;-82
2022/05/01 01:01:53;;;;;;;20.63;18.60;;;8.40;99.90;;;;;;5034795;28;20041;-82
2022/05/01 01:04:20;;;;;;;20.40;18.35;;;8.40;99.90;;;;;;5048312;28;20029;-82
2022/05/01 01:06:46;;;;;;;20.35;18.55;;;8.40;99.90;;;;;;5044903;28;20033;-83
2022/05/01 01:09:13;;;;;;;19.65;17.83;;;8.40;99.90;;;;;;5053170;28;20044;-83
2022/05/01 01:11:40;;;;;;;18.42;16.70;;;8.40;99.90;;;;;;5049788;28;20037;-83
2022/05/01 01:14:06;;;;;;;21.55;19.15;;;8.40;99.90;;;;;;5046725;28;20037;-82
2022/05/01 01:16:34;;;;;;;19.70;17.88;;;8.40;99.90;;;;;;5055636;28;20140;-82
2022/05/01 01:19:02;;;;;;;23.20;21.25;;;8.30;99.90;;;;;;5056383;28;20040;-83
2022/05/01 01:21:29;;;;;;;23.70;20.48;;;8.30;99.90;;;;;;5052301;28;20037;-82
2022/05/01 01:23:57;;;;;;;21.65;19.65;;;8.30;99.90;;;;;;5052725;28;20056;-82
2022/05/01 01:26:24;;;;;;;20.85;19.08;;;8.30;99.90;;;;;;5051963;28;20064;-82
2022/05/01 01:28:52;;;;;;;21.50;19.70;;;8.30;99.90;;;;;;5040611;28;20564;-82
2022/05/01 01:34:09;;;;;;;26.42;20.85;;;8.40;99.90;;;;;;5032979;28;20048;-82
2022/05/01 01:36:38;;;;;;;20.80;18.67;;;8.30;99.90;;;;;;5049182;28;20028;-83
2022/05/01 01:39:05;;;;;;;22.17;19.98;;;8.30;99.90;;;;;;5035669;28;20029;-83
2022/05/01 01:41:33;;;;;;;21.25;19.17;;;8.30;99.90;;;;;;5031852;28;20036;-82
2022/05/01 01:44:00;;;;;;;19.67;17.77;;;8.30;99.90;;;;;;5048176;28;20360;-82
2022/05/01 01:46:26;;;;;;;19.50;17.85;;;8.20;99.90;;;;;;5045614;28;20029;-82
2022/05/01 01:48:53;;;;;;;24.45;19.58;;;8.20;99.90;;;;;;5051141;28;20036;-82
2022/05/01 01:51:20;;;;;;;21.38;19.48;;;8.20;99.90;;;;;;5044787;28;20036;-83
2022/05/01 01:53:46;;;;;;;23.30;21.35;;;8.30;99.90;;;;;;5034670;28;20455;-83
2022/05/01 01:56:13;;;;;;;22.88;20.95;;;8.30;99.90;;;;;;5052074;28;20047;-82
2022/05/01 01:58:40;;;;;;;22.85;21.15;;;8.30;99.90;;;;;;5051604;28;20381;-82
2022/05/01 02:01:08;;;;;;;21.23;19.42;;;8.20;99.90;;;;;;5047448;28;20041;-82
2022/05/01 02:03:34;;;;;;;24.77;22.20;;;8.20;99.90;;;;;;5046416;28;20025;-82
2022/05/01 02:06:03;;;;;;;22.27;20.35;;;8.20;99.90;;;;;;5029511;28;20395;-82
2022/05/01 02:08:33;;;;;;;20.77;18.60;;;8.20;99.90;;;;;;5051287;28;20037;-82
2022/05/01 02:11:04;;;;;;;21.13;19.27;;;8.20;99.90;;;;;;5032615;28;20071;-82
2022/05/01 02:13:30;;;;;;;21.65;19.75;;;8.20;99.90;;;;;;5033393;28;20049;-81
2022/05/01 02:15:57;;;;;;;24.02;19.92;;;8.10;99.90;;;;;;5017484;28;20389;-82
2022/05/01 02:18:25;;;;;;;21.45;19.50;;;8.10;99.90;;;;;;5049112;28;20029;-82
2022/05/01 02:23:36;;;;;;;20.20;18.52;;;8.10;99.90;;;;;;5051007;28;20049;-82
2022/05/01 02:26:02;;;;;;;22.10;20.05;;;8.10;99.90;;;;;;5052502;28;20417;-82
2022/05/01 02:28:29;;;;;;;23.65;19.88;;;8.20;99.90;;;;;;5044567;28;20462;-82
2022/05/01 02:30:55;;;;;;;19.52;17.73;;;8.20;99.90;;;;;;5050346;28;20040;-82
2022/05/01 02:33:21;;;;;;;19.63;17.55;;;8.20;99.90;;;;;;5051288;28;20037;-83
2022/05/01 02:35:48;;;;;;;20.25;18.38;;;8.20;99.90;;;;;;5051437;28;20028;-82
2022/05/01 02:38:14;;;;;;;17.52;16.08;;;8.10;99.90;;;;;;5039175;28;20052;-82
2022/05/01 02:40:40;;;;;;;20.55;18.65;;;8.10;99.90;;;;;;5049231;28;20025;-82
2022/05/01 02:43:06;;;;;;;18.73;16.83;;;8.10;99.90;;;;;;5052079;28;20040;-82
2022/05/01 02:45:33;;;;;;;19.20;17.50;;;8.20;99.90;;;;;;5050060;28;20037;-82
2022/05/01 02:47:59;;;;;;;18.83;17.13;;;8.20;99.90;;;;;;5052230;28;20037;-82
2022/05/01 02:50:25;;;;;;;19.75;17.98;;;8.20;99.90;;;;;;5049190;28;20037;-82
2022/05/01 02:52:52;;;;;;;18.25;16.33;;;8.20;99.90;;;;;;5034032;28;20068;-82
2022/05/01 02:55:19;;;;;;;18.13;16.63;;;8.20;99.90;;;;;;5041398;28;20044;-81
2022/05/01 02:57:46;;;;;;;23.08;16.45;;;8.20;99.90;;;;;;5060036;28;20029;-82
2022/05/01 03:00:16;;;;;;;18.77;17.08;;;8.20;99.90;;;;;;5060293;28;20044;-82
2022/05/01 03:02:51;;;;;;;17.50;15.77;;;8.20;99.90;;;;;;5053834;28;20044;-82
2022/05/01 03:05:18;;;;;;;18.42;16.83;;;8.20;99.90;;;;;;5032747;28;20138;-82
2022/05/01 03:07:45;;;;;;;18.83;17.00;;;8.20;99.90;;;;;;5033157;28;20040;-82
2022/05/01 03:10:11;;;;;;;16.65;15.15;;;8.20;99.90;;;;;;5034995;28;20037;-83
2022/05/01 03:12:38;;;;;;;18.45;16.35;;;8.20;99.90;;;;;;5018452;28;20635;-82
2022/05/01 03:15:08;;;;;;;16.98;15.32;;;8.20;99.90;;;;;;5050219;28;20048;-82
2022/05/01 03:23:07;;;;;;;20.15;16.20;;;8.20;99.90;;;;;;5056912;28;20049;-82
2022/05/01 03:25:33;;;;;;;18.25;16.58;;;8.20;99.90;;;;;;5055840;28;20083;-82
2022/05/01 03:28:00;;;;;;;18.90;15.77;;;8.20;99.90;;;;;;5037405;28;20036;-82
2022/05/01 03:30:26;;;;;;;17.65;15.98;;;8.20;99.90;;;;;;5058301;28;20033;-82
2022/05/01 03:32:52;;;;;;;16.83;15.07;;;8.20;99.90;;;;;;5042037;28;20036;-81
2022/05/01 03:35:19;;;;;;;17.73;15.23;;;8.20;99.90;;;;;;5054964;28;20481;-82
2022/05/01 03:37:45;;;;;;;17.25;15.75;;;8.20;99.90;;;;;;5051259;28;20469;-82
2022/05/01 03:40:14;;;;;;;15.38;13.98;;;8.20;99.90;;;;;;5052967;28;20071;-81
2022/05/01 03:42:41;;;;;;;15.57;14.18;;;8.20;99.90;;;;;;5054395;28;20041;-81
2022/05/01 03:45:09;;;;;;;16.98;15.30;;;8.20;99.90;;;;;;5036833;28;20489;-82
2022/05/01 03:47:36;;;;;;;16.38;14.88;;;8.20;99.90;;;;;;5037328;28;20032;-82
2022/05/01 03:50:03;;;;;;;17.20;14.90;;;8.20;99.90;;;;;;5054608;28;20029;-82
2022/05/01 03:52:29;;;;;;;16.75;15.02;;;8.20;99.90;;;;;;5031754;28;20040;-81
2022/05/01 03:54:55;;;;;;;17.20;15.50;;;8.20;99.90;;;;;;5060925;28;20037;-82
2022/05/01 03:57:21;;;;;;;15.65;14.23;;;8.20;99.90;;;;;;5055069;28;20385;-81
2022/05/01 03:59:47;;;;;;;19.85;15.05;;;8.30;99.90;;;;;;5053831;28;20029;-82
2022/05/01 04:02:16;;;;;;;16.33;14.98;;;8.30;99.90;;;;;;5046699;28;20393;-82
2022/05/01 04:04:45;;;;;;;16.73;15.40;;;8.30;99.90;;;;;;5048775;28;20037;-82
2022/05/01 04:07:12;;;;;;;16.73;15.30;;;8.20;99.90;;;;;;5048947;28;20040;-82
2022/05/01 04:09:38;;;;;;;18.65;15.93;;;8.20;99.90;;;;;;5049600;28;20272;-82
2022/05/01 04:12:07;;;;;;;15.98;14.68;;;8.20;99.90;;;;;;5052616;28;20069;-82
2022/05/01 04:14:34;;;;;;;17.63;15.90;;;8.20;99.90;;;;;;5051745;28;20037;-82
2022/05/01 04:17:00;;;;;;;14.90;13.45;;;8.10;99.90;;;;;;5051963;28;20040;-81
2022/05/01 04:19:28;;;;;;;17.38;15.40;;;8.10;99.90;;;;;;5030424;28;20033;-82
2022/05/01 04:21:55;;;;;;;15.88;14.32;;;8.10;99.90;;;;;;5053174;28;20454;-82
2022/05/01 04:24:23;;;;;;;17.92;16.25;;;8.10;99.90;;;;;;5034701;28;20056;-82
2022/05/01 04:26:49;;;;;;;16.63;15.13;;;8.10;99.90;;;;;;5052699;28;20500;-82
2022/05/01 04:32:00;;;;;;;16.65;15.10;;;8.10;99.90;;;;;;5046341;28;20044;-81
2022/05/01 04:34:27;;;;;;;15.68;14.20;;;8.10;99.90;;;;;;5053213;28;20036;-81
2022/05/01 04:36:53;;;;;;;16.75;15.02;;;8.10;99.90;;;;;;5047703;28;20036;-81
2022/05/01 04:39:19;;;;;;;17.17;15.57;;;8.10;99.90;;;;;;5050133;28;20458;-81
2022/05/01 04:41:46;;;;;;;17.15;15.60;;;8.10;99.90;;;;;;5051705;28;20025;-81
2022/05/01 04:44:12;;;;;;;17.63;16.02;;;8.10;99.90;;;;;;5052526;28;20029;-81
2022/05/01 04:46:38;;;;;;;17.55;15.90;;;8.10;99.90;;;;;;5034762;28;20029;-81
2022/05/01 04:49:04;;;;;;;17.38;15.98;;;8.10;99.90;;;;;;5049784;28;20041;-81
2022/05/01 04:51:31;;;;;;;16.48;15.15;;;8.10;99.90;;;;;;5015313;28;20053;-82
2022/05/01 04:53:57;;;;;;;17.83;15.75;;;8.10;99.90;;;;;;5049931;28;20473;-82
2022/05/01 04:59:09;;;;;;;16.55;15.10;;;8.20;99.90;;;;;;5031717;28;20046;-82
2022/05/01 05:01:35;;;;;;;15.82;14.60;;;8.20;99.90;;;;;;5047511;28;20044;-82
2022/05/01 05:04:03;;;;;;;16.13;14.52;;;8.20;99.90;;;;;;5052322;28;20347;-81
2022/05/01 05:06:30;;;;;;;15.07;13.68;;;8.20;99.90;;;;;;5028034;28;20045;-81
2022/05/01 05:11:40;;;;;;;15.43;13.82;;;8.30;99.90;;;;;;5050128;28;20033;-81
2022/05/01 05:14:07;;;;;;;13.55;12.35;;;8.30;99.90;;;;;;5048087;28;20025;-82
2022/05/01 05:16:33;;;;;;;15.27;13.88;;;8.30;99.90;;;;;;5049001;28;20056;-82
2022/05/01 05:18:59;;;;;;;14.30;12.85;;;8.40;99.90;;;;;;5048853;28;20492;-82
2022/05/01 05:21:26;;;;;;;14.60;13.35;;;8.40;99.90;;;;;;5040301;28;20040;-82
2022/05/01 05:23:54;;;;;;;14.77;13.38;;;8.40;99.90;;;;;;5033360;28;20053;-82
2022/05/01 05:26:20;;;;;;;15.13;13.63;;;8.40;99.90;;;;;;5051428;28;20033;-82
2022/05/01 05:28:46;;;;;;;15.07;13.10;;;8.50;99.90;;;;;;5052605;28;20033;-82
2022/05/01 05:31:12;;;;;;;13.90;12.63;;;8.50;99.90;;;;;;5030010;28;20479;-82
2022/05/01 05:33:38;;;;;;;16.38;13.50;;;8.50;99.90;;;;;;5055331;28;20036;-81
2022/05/01 05:36:05;;;;;;;13.07;11.75;;;8.50;99.90;;;;;;5047237;28;20033;-82
2022/05/01 05:38:33;;;;;;;14.00;12.55;;;8.60;99.90;;;;;;5048525;28;20040;-81
2022/05/01 05:41:00;;;;;;;14.18;12.88;;;8.60;99.90;;;;;;5051540;28;20375;-81
2022/05/01 05:43:26;;;;;;;12.55;11.48;;;8.70;99.90;;;;;;5058641;28;20044;-81
2022/05/01 05:45:52;;;;;;;12.18;11.02;;;8.60;99.90;;;;;;5039863;28;20037;-81
2022/05/01 05:48:19;;;;;;;12.93;10.90;;;8.70;99.90;;;;;;5052059;28;20025;-81
2022/05/01 05:50:45;;;;;;;13.23;12.02;;;8.80;99.90;;;;;;5032053;28;20056;-82
2022/05/01 05:53:11;;;;;;;15.40;12.32;;;8.90;99.90;;;;;;5051338;28;20041;-82
2022/05/01 05:55:37;;;;;;;13.35;11.95;;;8.90;99.90;;;;;;5030146;28;20224;-82
2022/05/01 05:58:04;;;;;;;18.13;11.63;;;8.90;99.90;;;;;;5047073;28;20029;-82
2022/05/01 06:00:30;;;;;;;13.55;12.45;;;8.90;99.90;;;;;;5044122;28;20049;-82
2022/05/01 06:02:57;;;;;;;11.93;10.80;;;9.00;99.90;;;;;;5049866;28;20037;-82
2022/05/01 06:05:23;;;;;;;11.65;10.55;;;9.00;99.90;;;;;;5048083;28;20045;-81
2022/05/01 06:07:49;;;;;;;13.35;11.80;;;9.00;99.90;;;;;;5046934;28;20032;-82
2022/05/01 06:10:15;;;;;;;14.55;11.18;;;9.10;99.90;;;;;;5030631;28;20683;-82
2022/05/01 06:12:42;;;;;;;11.43;10.25;;;9.20;99.90;;;;;;5032798;28;20462;-81
2022/05/01 06:15:09;;;;;;;11.93;10.65;;;9.30;99.90;;;;;;5038050;28;20043;-82
2022/05/01 06:17:35;;;;;;;15.80;10.27;;;9.30;99.90;;;;;;5050519;28;20028;-82
2022/05/01 06:20:02;;;;;;;13.07;11.40;;;9.40;99.90;;;;;;5048334;28;20040;-82
2022/05/01 06:22:28;;;;;;;12.55;10.13;;;9.50;99.90;;;;;;5047833;28;20064;-82
2022/05/01 06:24:54;;;;;;;11.10;10.00;;;9.60;99.90;;;;;;5033166;28;20048;-82
2022/05/01 06:27:20;;;;;;;10.45;9.65;;;9.70;99.90;;;;;;5029923;28;20044;-82
2022/05/01 06:29:47;;;;;;;9.93;8.95;;;9.60;99.90;;;;;;5027106;28;20033;-82
2022/05/01 06:32:19;;;;;;;10.23;8.85;;;9.70;99.90;;;;;;5048591;28;20390;-83
2022/05/01 06:34:47;;;;;;;10.95;9.52;;;9.80;99.90;;;;;;5053468;28;20033;-83
2022/05/01 06:37:14;;;;;;;10.73;9.25;;;9.70;99.90;;;;;;5051257;28;20180;-82
2022/05/01 06:39:40;;;;;;;11.05;9.88;;;9.60;99.90;;;;;;5032390;28;20063;-81
2022/05/01 06:42:06;;;;;;;14.30;9.82;;;9.70;99.90;;;;;;5047619;28;20029;-82
2022/05/01 06:44:32;;;;;;;9.82;8.68;;;10.10;99.90;;;;;;5048287;28;20462;-81
2022/05/01 06:46:59;;;;;;;9.20;8.40;;;10.20;99.90;;;;;;5048308;28;20033;-82
2022/05/01 06:49:25;;;;;;;10.35;9.35;;;10.40;99.90;;;;;;5050988;28;20029;-82
2022/05/01 06:51:51;;;;;;;9.35;7.57;;;10.30;99.90;;;;;;5031598;28;20417;-82
2022/05/01 06:54:17;;;;;;;9.10;8.23;;;10.20;99.90;;;;;;5046815;28;20048;-81
2022/05/01 06:56:44;;;;;;;10.13;8.57;;;10.20;99.90;;;;;;5034442;28;20510;-83
2022/05/01 06:59:11;;;;;;;10.10;9.30;;;10.30;99.90;;;;;;5028727;28;20041;-82
2022/05/01 07:01:37;;;;;;;10.63;9.52;;;10.40;99.90;;;;;;5049581;28;20032;-81
2022/05/01 07:04:03;;;;;;;11.82;8.07;;;10.50;99.90;;;;;;5016812;28;20063;-81
2022/05/01 07:06:30;;;;;;;9.63;8.70;;;10.60;99.90;;;;;;5052821;28;20029;-79
2022/05/01 07:08:56;;;;;;;10.35;9.35;;;10.60;99.90;;;;;;5051434;28;20339;-80
2022/05/01 07:11:22;;;;;;;10.27;9.20;;;10.40;99.90;;;;;;5032704;28;20037;-81
2022/05/01 07:13:48;;;;;;;11.27;8.88;;;10.40;99.90;;;;;;5050812;28;20037;-82
2022/05/01 07:16:14;;;;;;;9.52;8.73;;;10.70;99.90;;;;;;5051542;28;20025;-80
2022/05/01 07:18:40;;;;;;;10.15;9.25;;;10.80;99.90;;;;;;5030173;28;20117;-81
2022/05/01 07:21:12;;;;;;;17.65;9.43;;;10.80;99.90;;;;;;5043047;28;20049;-81
2022/05/01 07:23:38;;;;;;;19.77;10.20;;;10.70;99.90;;;;;;5027416;28;20053;-81
2022/05/01 07:26:05;;;;;;;9.48;8.50;;;10.90;99.90;;;;;;5025713;28;20034;-81
2022/05/01 07:28:32;;;;;;;16.02;9.18;;;11.00;99.90;;;;;;5021855;28;20040;-81
2022/05/01 07:30:59;;;;;;;9.48;8.57;;;11.10;99.90;;;;;;5024899;28;20029;-81
2022/05/01 07:33:26;;;;;;;10.43;9.32;;;11.10;99.90;;;;;;5026457;28;20041;-81
2022/05/01 07:35:52;;;;;;;11.52;8.70;;;11.00;99.90;;;;;;5034743;28;20025;-81
2022/05/01 07:38:18;;;;;;;10.68;9.45;;;10.90;99.90;;;;;;5035014;28;20041;-82
2022/05/01 07:40:44;;;;;;;9.23;8.32;;;10.90;99.90;;;;;;5027691;28;20038;-83
2022/05/01 07:43:10;;;;;;;10.65;9.20;;;11.20;99.90;;;;;;5033594;28;20477;-82
2022/05/01 07:45:37;;;;;;;9.13;8.23;;;11.40;99.90;;;;;;5028742;28;20040;-82
2022/05/01 07:48:03;;;;;;;10.20;9.10;;;11.20;99.90;;;;;;5035167;28;20462;-82
2022/05/01 07:50:29;;;;;;;17.92;9.27;;;11.40;99.90;;;;;;5028701;28;20036;-82
2022/05/01 07:52:56;;;;;;;12.05;8.63;;;11.80;99.90;;;;;;5026082;28;20490;-82
2022/05/01 07:55:22;;;;;;;12.40;8.20;;;12.00;99.90;;;;;;5040761;28;20041;-81
2022/05/01 07:57:48;;;;;;;12.55;7.57;;;11.80;99.90;;;;;;5032447;28;20069;-80
2022/05/01 08:00:15;;;;;;;10.43;8.68;;;11.90;99.90;;;;;;5032536;28;20033;-80
2022/05/01 08:05:28;;;;;;;14.80;8.90;;;12.80;99.90;;;;;;5031935;28;20458;-81
2022/05/01 08:07:54;;;;;;;14.52;8.32;;;12.60;99.90;;;;;;5027180;28;20037;-82
2022/05/01 08:10:20;;;;;;;9.23;6.75;;;12.60;99.90;;;;;;5030941;28;20032;-80
2022/05/01 08:12:47;;;;;;;7.05;5.97;;;13.10;99.90;;;;;;5030281;28;20105;-80
2022/05/01 08:15:17;;;;;;;6.93;6.28;;;14.00;99.90;;;;;;5030041;28;20194;-80
2022/05/01 08:17:45;;;;;;;6.70;5.95;;;14.40;99.30;;;;;;5032538;28;20052;-79
2022/05/01 08:23:07;;;;;;;8.52;5.85;;;14.30;99.90;;;;;;5030317;28;20068;-80
2022/05/01 08:25:34;;;;;;;5.97;5.07;;;14.50;99.50;;;;;;5034307;28;20033;-80
2022/05/01 08:28:00;;;;;;;9.40;6.80;;;14.50;99.90;;;;;;5017025;28;20049;-80
2022/05/01 08:30:27;;;;;;;7.97;6.38;;;14.50;98.80;;;;;;5034232;28;20029;-75
2022/05/01 08:32:54;;;;;;;6.47;5.95;;;14.30;99.20;;;;;;5039918;28;20040;-79
2022/05/01 08:35:20;;;;;;;6.95;6.35;;;14.30;99.90;;;;;;5029604;28;20086;-79
2022/05/01 08:37:46;;;;;;;6.72;6.05;;;14.40;99.40;;;;;;5044151;28;20033;-79
2022/05/01 08:40:14;;;;;;;7.07;6.40;;;14.90;98.40;;;;;;5024136;28;20041;-79
2022/05/01 08:42:42;;;;;;;9.05;6.22;;;14.70;97.80;;;;;;5027375;28;20129;-79
2022/05/01 08:45:10;;;;;;;7.35;6.57;;;15.10;96.20;;;;;;5031896;28;20386;-79
2022/05/01 08:47:44;;;;;;;8.27;6.93;;;15.10;96.60;;;;;;5016336;28;20459;-80
2022/05/01 08:50:11;;;;;;;7.03;6.43;;;15.60;96.40;;;;;;5028481;28;20037;-79
2022/05/01 08:52:38;;;;;;;7.07;5.93;;;15.10;97.10;;;;;;5033571;28;20036;-80
2022/05/01 08:55:05;;;;;;;8.95;6.97;;;14.40;97.30;;;;;;5033621;28;20473;-79
2022/05/01 08:57:34;;;;;;;9.07;6.95;;;14.10;99.40;;;;;;5032600;28;20033;-80
2022/05/01 09:00:02;;;;;;;9.82;7.45;;;14.00;98.80;;;;;;5026624;28;20037;-81
2022/05/01 09:02:31;;;;;;;9.02;6.93;;;14.00;99.90;;;;;;5014288;28;20029;-81
2022/05/01 09:04:58;;;;;;;7.38;6.60;;;14.10;99.90;;;;;;5033800;28;20033;-81
2022/05/01 09:07:25;;;;;;;9.25;7.28;;;14.40;99.90;;;;;;5045698;28;20029;-80
2022/05/01 09:09:51;;;;;;;6.90;6.28;;;14.60;99.40;;;;;;5041354;28;20037;-82
2022/05/01 09:15:04;;;;;;;7.25;6.57;;;14.10;99.90;;;;;;5026984;28;20029;-80
2022/05/01 09:17:31;;;;;;;9.98;7.80;;;14.40;99.90;;;;;;5029652;28;20029;-81
2022/05/01 09:20:10;;;;;;;8.43;7.60;;;14.30;99.90;;;;;;5026003;28;20029;-80
2022/05/01 09:22:49;;;;;;;8.13;7.05;;;14.80;99.70;;;;;;5017434;28;20044;-80
2022/05/01 09:25:17;;;;;;;8.63;7.82;;;14.60;99.10;;;;;;5034533;28;20045;-81
2022/05/01 09:27:44;;;;;;;9.23;7.38;;;14.60;98.50;;;;;;5044778;28;20220;-80
2022/05/01 09:30:20;;;;;;;9.93;6.95;;;15.00;97.10;;;;;;5046004;28;20033;-80
2022/05/01 09:32:47;;;;;;;10.43;7.63;;;15.20;97.70;;;;;;5048393;28;20849;-80
2022/05/01 09:35:23;;;;;;;8.50;7.47;;;14.90;96.10;;;;;;5051809;28;20037;-81
2022/05/01 09:37:50;;;;;;;8.82;7.90;;;14.90;97.20;;;;;;5037989;28;20044;-80
2022/05/01 09:40:30;;;;;;;10.95;9.85;;;15.50;97.00;;;;;;5045636;28;20580;-80
2022/05/01 09:42:57;;;;;;;8.38;6.30;;;16.00;94.90;;;;;;5049754;28;20048;-81
2022/05/01 09:45:31;;;;;;;8.35;7.45;;;16.10;94.10;;;;;;5052679;28;20025;-79
2022/05/01 09:47:58;;;;;;;9.27;7.00;;;16.00;95.00;;;;;;5033884;28;20485;-79
2022/05/01 09:50:42;;;;;;;9.77;6.93;;;15.50;95.10;;;;;;5046986;28;20048;-80
2022/05/01 09:53:09;;;;;;;7.43;6.57;;;15.80;95.40;;;;;;5050278;28;20387;-82
2022/05/01 09:55:36;;;;;;;7.97;6.55;;;15.80;95.20;;;;;;5030786;28;20029;-82
2022/05/01 09:58:11;;;;;;;7.65;6.70;;;15.70;94.60;;;;;;5055456;28;20052;-82
2022/05/01 10:00:46;;;;;;;7.90;7.20;;;15.70;94.30;;;;;;5047063;28;20051;-82
2022/05/01 10:03:20;;;;;;;7.50;6.80;;;15.50;94.90;;;;;;5051007;28;20067;-85
2022/05/01 10:05:48;;;;;;;8.40;7.25;;;15.10;95.60;;;;;;5052156;28;20029;-83
2022/05/01 10:08:16;;;;;;;8.77;7.90;;;14.60;96.70;;;;;;5054865;28;20037;-84
2022/05/01 10:10:46;;;;;;;8.52;7.30;;;14.80;97.90;;;;;;5067894;28;20029;-85
2022/05/01 10:13:13;;;;;;;8.23;6.97;;;15.20;97.10;;;;;;5041814;28;20041;-84
2022/05/01 10:15:39;;;;;;;7.88;7.18;;;15.40;96.00;;;;;;5057196;28;20473;-83
2022/05/01 10:18:08;;;;;;;9.70;6.82;;;15.30;94.20;;;;;;5031161;28;20455;-83
2022/05/01 10:20:34;;;;;;;8.07;7.35;;;14.60;95.80;;;;;;5048059;28;20653;-83
2022/05/01 10:23:04;;;;;;;10.07;9.07;;;14.30;96.10;;;;;;5047151;28;20060;-83
2022/05/01 10:25:35;;;;;;;9.63;8.68;;;14.30;96.80;;;;;;5046679;28;20422;-83
2022/05/01 10:28:35;;;;;;;9.98;8.93;;;14.20;97.00;;;;;;5051668;28;20033;-83
2022/05/01 10:34:57;;;;;;;8.10;7.18;;;14.00;97.10;;;;;;5031358;28;20041;-83
2022/05/01 10:37:54;;;;;;;9.88;8.98;;;13.90;97.30;;;;;;5048510;28;20040;-83
2022/05/01 10:40:21;;;;;;;9.95;8.02;;;13.70;97.90;;;;;;5043118;28;20528;-82
2022/05/01 10:42:49;;;;;;;7.88;7.10;;;13.70;98.90;;;;;;5045737;28;20382;-82
2022/05/01 10:45:22;;;;;;;11.98;9.32;;;13.70;98.70;;;;;;5050379;28;20029;-81
2022/05/01 10:47:52;;;;;;;9.52;8.07;;;13.70;99.10;;;;;;5050280;28;20381;-82
2022/05/01 10:50:27;;;;;;;9.07;8.20;;;13.80;98.30;;;;;;5045230;28;20088;-81
2022/05/01 10:53:08;;;;;;;8.27;7.57;;;13.70;98.40;;;;;;5045454;28;20025;-80
2022/05/01 10:55:53;;;;;;;6.85;6.28;;;13.60;99.50;;;;;;5042484;28;20040;-80
2022/05/01 10:58:26;;;;;;;10.07;9.10;;;13.60;99.70;;;;;;5046763;28;20033;-81
2022/05/01 11:00:54;;;;;;;10.05;8.82;;;13.60;99.80;;;;;;5046765;28;20040;-81
2022/05/01 11:03:25;;;;;;;12.32;9.27;;;13.60;99.50;;;;;;5045038;28;20391;-80
2022/05/01 11:06:01;;;;;;;11.38;9.05;;;13.70;99.60;;;;;;5052474;28;20037;-80
2022/05/01 11:08:36;;;;;;;8.60;7.82;;;13.60;99.20;;;;;;5057765;28;20071;-80
2022/05/01 11:11:05;;;;;;;10.82;9.07;;;13.80;99.50;;;;;;5060241;28;20029;-81
2022/05/01 11:13:33;;;;;;;9.77;8.88;;;13.90;98.70;;;;;;5052925;28;20037;-81
2022/05/01 11:16:00;;;;;;;11.60;8.07;;;13.90;99.20;;;;;;5054555;28;20031;-82
2022/05/01 11:18:50;;;;;;;8.25;7.55;;;13.80;99.00;;;;;;5053286;28;20132;-80
2022/05/01 11:21:20;;;;;;;9.73;8.77;;;14.00;99.20;;;;;;5026038;28;20049;-81
2022/05/01 11:23:56;;;;;;;8.90;8.07;;;14.00;98.10;;;;;;5049406;28;20223;-81
2022/05/01 11:26:22;;;;;;;8.55;7.82;;;14.00;98.90;;;;;;5056450;28;20485;-82
2022/05/01 11:29:06;;;;;;;9.65;8.77;;;14.00;98.20;;;;;;5055608;28;20037;-82
2022/05/01 11:31:35;;;;;;;8.10;7.28;;;14.20;98.80;;;;;;5050179;28;20041;-84
2022/05/01 11:34:17;;;;;;;9.75;8.13;;;14.20;98.80;;;;;;5054147;28;20025;-83
2022/05/01 11:37:04;;;;;;;9.55;8.20;;;14.30;98.40;;;;;;5056394;28;20052;-84
2022/05/01 11:39:46;;;;;;;8.57;7.78;;;14.40;98.10;;;;;;5055528;28;20051;-84
2022/05/01 11:42:25;;;;;;;7.70;7.00;;;14.50;98.20;;;;;;5034217;28;20050;-84
2022/05/01 11:44:52;;;;;;;8.23;7.40;;;14.70;97.70;;;;;;5031876;28;20052;-83
2022/05/01 11:47:19;;;;;;;7.97;7.18;;;14.90;97.00;;;;;;5053652;28;20037;-82
2022/05/01 11:49:46;;;;;;;9.90;7.93;;;15.00;96.90;;;;;;5049615;28;20032;-83
2022/05/01 11:52:13;;;;;;;9.07;8.27;;;15.20;96.70;;;;;;5053964;28;20021;-82
2022/05/01 11:54:59;;;;;;;11.65;9.88;;;15.40;96.40;;;;;;5020705;28;20072;-83
2022/05/01 12:03:13;;;;;;;10.48;8.73;;;15.20;95.60;;;;;;5052689;28;20025;-81
2022/05/01 12:05:49;;;;;;;9.10;7.95;;;15.20;95.10;;;;;;5054863;28;20028;-81
2022/05/01 12:08:20;;;;;;;9.80;8.88;;;15.10;95.60;;;;;;5052978;28;20041;-81
2022/05/01 12:10:46;;;;;;;11.55;8.55;;;15.30;95.00;;;;;;5053233;28;20477;-81
2022/05/01 12:13:17;;;;;;;10.90;9.65;;;15.40;95.90;;;;;;5040134;28;20497;-81
2022/05/01 12:15:44;;;;;;;10.38;9.32;;;15.30;95.40;;;;;;5054178;28;20036;-81
2022/05/01 12:18:10;;;;;;;8.75;7.95;;;15.30;94.60;;;;;;5040413;28;20036;-81
2022/05/01 12:20:36;;;;;;;11.10;9.20;;;15.00;94.90;;;;;;5039234;28;20045;-81
2022/05/01 12:23:03;;;;;;;9.50;8.52;;;14.70;95.00;;;;;;5063749;28;20067;-80
2022/05/01 12:25:30;;;;;;;9.23;8.43;;;14.70;96.20;;;;;;5040904;28;20033;-80
2022/05/01 12:27:57;;;;;;;10.18;8.57;;;14.70;95.70;;;;;;5034918;28;20033;-81
2022/05/01 12:30:27;;;;;;;10.73;9.60;;;14.90;95.70;;;;;;5025738;28;20029;-81
2022/05/01 12:32:55;;;;;;;9.90;8.90;;;15.00;95.70;;;;;;5031366;28;20037;-82
2022/05/01 12:35:21;;;;;;;10.77;9.55;;;14.90;95.70;;;;;;5012632;28;20292;-82
2022/05/01 12:37:49;;;;;;;11.00;8.75;;;14.80;95.80;;;;;;5033971;28;20036;-81
2022/05/01 12:43:50;;;;;;;8.68;7.78;;;14.70;96.30;;;;;;5031182;28;20471;-81
2022/05/01 12:46:27;;;;;;;8.80;8.00;;;14.70;96.50;;;;;;5031880;28;20533;-82
2022/05/01 12:48:56;;;;;;;10.35;9.32;;;14.90;96.10;;;;;;5030995;28;20045;-81
2022/05/01 12:51:24;;;;;;;10.32;9.32;;;15.40;95.20;;;;;;5009644;28;20041;-81
2022/05/01 12:54:09;;;;;;;10.52;9.27;;;15.30;94.80;;;;;;5037201;28;20045;-81
2022/05/01 12:56:36;;;;;;;8.88;7.63;;;15.10;95.00;;;;;;5035489;28;20037;-82
2022/05/01 12:59:24;;;;;;;10.35;8.35;;;15.20;94.20;;;;;;5028499;28;20048;-80
2022/05/01 13:01:50;;;;;;;9.40;8.32;;;15.40;95.00;;;;;;5029459;28;20037;-82
2022/05/01 13:04:28;;;;;;;10.40;8.52;;;15.90;94.60;;;;;;5017398;28;20065;-82
2022/05/01 13:06:54;;;;;;;9.02;8.00;;;16.20;92.80;;;;;;5033737;28;20384;-82
2022/05/01 13:09:21;;;;;;;9.48;8.00;;;16.20;92.40;;;;;;5022304;28;20056;-83
2022/05/01 13:12:02;;;;;;;9.13;8.32;;;16.20;92.30;;;;;;5037301;28;20256;-82
2022/05/01 13:14:33;;;;;;;10.15;8.77;;;16.50;92.20;;;;;;5028592;28;20041;-81
2022/05/01 13:17:13;;;;;;;7.90;7.10;;;16.60;93.30;;;;;;5016456;28;20049;-82
2022/05/01 13:19:43;;;;;;;11.10;7.97;;;16.20;92.20;;;;;;5026819;28;20045;-82
2022/05/01 13:22:10;;;;;;;11.10;9.00;;;15.90;92.90;;;;;;5024144;28;20395;-83
2022/05/01 13:24:39;;;;;;;11.48;8.65;;;15.70;94.00;;;;;;5049771;28;20053;-82
2022/05/01 13:27:10;;;;;;;12.70;9.82;;;15.40;94.80;;;;;;5049847;28;20056;-81
2022/05/01 13:29:39;;;;;;;9.65;8.77;;;15.30;94.60;;;;;;5047714;28;20037;-82
2022/05/01 13:32:07;;;;;;;10.10;8.52;;;15.40;94.60;;;;;;5050162;28;20048;-81